Time;durP1;ratioP1;P1;durP2;ratioP2;P2;SDS_P1;SDS_P2;PMS_P1;PMS_P2;Temp;Humidity;BMP_temperature;BMP_pressure;BME280_temperature;BME280_humidity;BME280_pressure;Samples;Min_cycle;Max_cycle;Signal;HPM_P1;HPM_P2
2022/08/14 00:02:04;;;;;;;;;4.67;4.00;;;;;25.76;34.64;100337.31;5021473;28;46562;-82
2022/08/14 00:04:35;;;;;;;;;6.33;5.33;;;;;25.81;34.55;100341.97;5047226;28;45936;-82
2022/08/14 00:07:01;;;;;;;;;5.00;5.00;;;;;25.73;34.69;100324.78;5015841;28;45444;-82
2022/08/14 00:09:27;;;;;;;;;4.00;4.00;;;;;25.72;34.96;100325.09;5029716;28;45483;-82
2022/08/14 00:11:52;;;;;;;;;3.67;3.67;;;;;25.66;34.72;100312.31;5035557;28;45710;-81
2022/08/14 00:14:19;;;;;;;;;6.00;6.00;;;;;25.63;34.99;100313.81;5034231;28;45408;-82
2022/08/14 00:16:44;;;;;;;;;4.00;4.00;;;;;25.56;34.98;100305.00;5020058;28;45884;-79
2022/08/14 00:19:11;;;;;;;;;6.67;5.33;;;;;25.66;35.31;100315.13;5020395;28;45736;-83
2022/08/14 00:21:37;;;;;;;;;3.67;3.67;;;;;25.56;35.38;100310.63;5010753;28;47277;-82
2022/08/14 00:24:03;;;;;;;;;5.00;4.00;;;;;25.51;35.54;100297.53;5035334;28;45490;-83
2022/08/14 00:26:28;;;;;;;;;5.00;5.00;;;;;25.52;35.49;100301.16;5004501;28;45471;-84
2022/08/14 00:28:54;;;;;;;;;5.00;5.00;;;;;25.43;35.93;100283.44;5019325;28;45835;-83
2022/08/14 00:31:20;;;;;;;;;5.00;4.00;;;;;25.45;35.63;100300.78;5016969;28;47635;-82
2022/08/14 00:33:46;;;;;;;;;3.00;3.00;;;;;25.38;36.04;100292.84;5016415;28;45364;-82
2022/08/14 00:36:11;;;;;;;;;3.00;3.00;;;;;25.37;36.35;100296.78;5017904;28;45843;-83
2022/08/14 00:38:36;;;;;;;;;2.67;2.67;;;;;25.20;36.34;100264.59;5015548;28;45818;-82
2022/08/14 00:41:05;;;;;;;;;2.67;2.67;;;;;25.31;36.62;100289.63;5014472;28;48909;-81
2022/08/14 00:43:35;;;;;;;;;3.33;3.00;;;;;25.10;36.76;100262.06;5029043;28;45841;-79
2022/08/14 00:46:07;;;;;;;;;4.00;4.00;;;;;25.16;37.08;100274.00;5029551;28;45348;-79
2022/08/14 00:48:34;;;;;;;;;5.33;4.00;;;;;25.06;37.10;100258.25;5028366;28;45524;-79
2022/08/14 00:51:00;;;;;;;;;4.00;3.00;;;;;25.18;37.07;100289.38;5014123;28;47175;-79
2022/08/14 00:53:26;;;;;;;;;5.00;5.00;;;;;25.10;37.40;100275.25;5014265;28;45465;-79
2022/08/14 00:55:55;;;;;;;;;3.67;3.67;;;;;25.05;37.62;100270.63;5014910;28;45398;-78
2022/08/14 00:58:30;;;;;;;;;3.00;3.00;;;;;25.09;37.22;100282.88;5029239;28;45569;-82
2022/08/14 01:01:01;;;;;;;;;6.67;5.00;;;;;24.95;37.27;100260.44;5016229;28;46375;-82
2022/08/14 01:03:30;;;;;;;;;4.00;4.00;;;;;24.90;37.73;100251.34;5013096;28;45746;-78
2022/08/14 01:05:57;;;;;;;;;6.00;6.00;;;;;25.01;37.76;100272.38;5015479;28;45854;-79
2022/08/14 01:08:25;;;;;;;;;5.00;4.00;;;;;24.82;37.88;100247.31;5014067;28;45638;-79
2022/08/14 01:10:54;;;;;;;;;4.00;3.67;;;;;24.86;38.02;100251.16;5014699;28;45508;-79
2022/08/14 01:13:26;;;;;;;;;5.00;4.00;;;;;24.90;38.38;100262.56;5022446;28;45434;-83
2022/08/14 01:15:54;;;;;;;;;5.00;5.00;;;;;24.88;38.03;100250.81;5022429;28;45464;-83
2022/08/14 01:21:10;;;;;;;;;4.67;4.67;;;;;24.81;38.28;100245.69;5015673;28;45541;-82
2022/08/14 01:23:41;;;;;;;;;4.00;4.00;;;;;24.59;38.37;100205.22;5015725;28;45493;-82
2022/08/14 01:26:08;;;;;;;;;4.33;4.00;;;;;24.71;38.82;100232.72;5015276;28;45533;-81
2022/08/14 01:28:36;;;;;;;;;4.67;4.67;;;;;24.71;38.90;100232.72;5014008;28;45971;-82
2022/08/14 01:31:14;;;;;;;;;4.00;4.00;;;;;24.60;39.00;100217.28;5016217;28;45740;-80
2022/08/14 01:33:43;;;;;;;;;4.00;4.00;;;;;24.50;39.44;100207.09;5014296;28;45424;-82
2022/08/14 01:36:10;;;;;;;;;5.33;4.33;;;;;24.61;39.31;100224.53;5005914;28;45428;-81
2022/08/14 01:38:37;;;;;;;;;8.00;5.00;;;;;24.57;39.38;100217.91;5019309;28;46178;-76
2022/08/14 01:41:09;;;;;;;;;5.00;4.67;;;;;24.61;39.42;100238.56;5017411;28;45556;-77
2022/08/14 01:44:01;;;;;;;;;6.00;6.00;;;;;24.59;39.45;100244.47;5018156;28;45661;-82
2022/08/14 01:46:33;;;;;;;;;4.00;4.00;;;;;24.58;39.18;100244.75;5019069;28;45804;-81
2022/08/14 01:49:00;;;;;;;;;4.00;4.00;;;;;24.51;39.42;100234.00;5017478;28;45396;-81
2022/08/14 01:51:27;;;;;;;;;4.00;4.00;;;;;24.53;39.57;100233.69;5018328;28;47288;-78
2022/08/14 01:54:08;;;;;;;;;4.67;4.33;;;;;24.56;39.53;100244.25;5017676;28;45422;-81
2022/08/14 01:56:37;;;;;;;;;5.00;4.00;;;;;24.42;39.76;100221.88;5033269;28;45740;-81
2022/08/14 01:59:25;;;;;;;;;3.00;3.00;;;;;24.53;39.53;100242.09;5019505;28;45447;-81
2022/08/14 02:01:53;;;;;;;;;6.00;5.00;;;;;24.50;40.16;100232.31;5019817;28;46181;-78
2022/08/14 02:04:20;;;;;;;;;3.33;3.33;;;;;24.48;39.93;100241.06;5018607;28;45418;-79
2022/08/14 02:06:49;;;;;;;;;4.33;4.33;;;;;24.36;40.20;100221.16;5019399;28;45574;-78
2022/08/14 02:09:14;;;;;;;;;5.00;3.00;;;;;24.46;40.05;100236.91;5028418;28;46154;-78
2022/08/14 02:11:40;;;;;;;;;4.00;4.00;;;;;24.45;40.26;100233.28;5035702;28;46183;-79
2022/08/14 02:14:12;;;;;;;;;6.33;5.00;;;;;24.38;40.08;100224.47;5034624;28;45302;-77
2022/08/14 02:16:43;;;;;;;;;4.00;4.00;;;;;24.37;40.37;100210.75;5030365;28;45359;-78
2022/08/14 02:19:13;;;;;;;;;6.00;4.67;;;;;24.41;41.12;100218.22;5029629;28;45500;-77
2022/08/14 02:21:39;;;;;;;;;5.00;5.00;;;;;24.38;41.17;100207.66;5034246;28;47223;-77
2022/08/14 02:24:05;;;;;;;;;6.67;4.00;;;;;24.39;41.21;100206.50;5034117;28;45428;-76
2022/08/14 02:26:34;;;;;;;;;3.33;3.33;;;;;24.32;41.50;100198.53;5015093;28;45460;-77
2022/08/14 02:29:08;;;;;;;;;4.67;3.67;;;;;24.35;41.53;100202.66;5015557;28;47303;-79
2022/08/14 02:31:37;;;;;;;;;5.33;5.33;;;;;24.29;41.94;100189.94;5017466;28;46218;-80
2022/08/14 02:34:12;;;;;;;;;5.00;3.00;;;;;24.29;41.85;100190.75;5016443;28;45509;-80
2022/08/14 02:36:40;;;;;;;;;6.67;5.33;;;;;24.18;42.01;100174.47;5015221;28;45491;-81
2022/08/14 02:39:14;;;;;;;;;5.00;5.00;;;;;24.24;41.79;100181.66;5016302;28;45303;-84
2022/08/14 02:41:41;;;;;;;;;5.33;5.00;;;;;23.95;42.32;100146.41;5016523;28;46669;-79
2022/08/14 02:44:09;;;;;;;;;6.00;4.67;;;;;24.19;42.73;100174.16;5033589;28;45810;-78
2022/08/14 02:46:35;;;;;;;;;6.00;6.00;;;;;24.17;43.00;100181.25;5025433;28;45428;-79
2022/08/14 02:49:01;;;;;;;;;5.00;5.00;;;;;24.14;43.03;100182.69;5014269;28;46475;-79
2022/08/14 02:51:28;;;;;;;;;7.00;5.00;;;;;24.09;42.74;100175.22;5019919;28;47051;-81
2022/08/14 02:53:56;;;;;;;;;5.67;4.67;;;;;23.94;42.84;100159.59;5031223;28;45427;-80
2022/08/14 02:56:21;;;;;;;;;4.00;4.00;;;;;23.87;42.88;100141.56;5023103;28;45468;-80
2022/08/14 02:58:50;;;;;;;;;5.33;4.67;;;;;23.89;43.10;100151.31;5016102;28;45947;-79
2022/08/14 03:01:21;;;;;;;;;5.00;5.00;;;;;24.00;42.86;100168.72;5028198;28;46885;-78
2022/08/14 03:03:48;;;;;;;;;5.00;5.00;;;;;23.91;43.08;100156.59;5029753;28;45668;-80
2022/08/14 03:06:15;;;;;;;;;6.33;5.00;;;;;23.95;43.21;100166.00;5026186;28;45329;-78
2022/08/14 03:08:42;;;;;;;;;4.33;4.00;;;;;23.89;43.35;100158.88;5034588;28;45503;-80
2022/08/14 03:11:10;;;;;;;;;6.33;5.67;;;;;23.86;43.31;100159.50;5034495;28;46037;-79
2022/08/14 03:13:38;;;;;;;;;6.00;6.00;;;;;23.72;43.50;100142.69;5035190;28;45395;-78
2022/08/14 03:16:06;;;;;;;;;5.33;5.00;;;;;23.84;43.43;100167.34;5035119;28;45516;-79
2022/08/14 03:18:32;;;;;;;;;6.00;6.00;;;;;23.85;44.03;100172.69;5034819;28;45932;-78
2022/08/14 03:21:04;;;;;;;;;5.00;5.00;;;;;23.80;43.70;100170.78;5028387;28;45795;-80
2022/08/14 03:23:32;;;;;;;;;4.33;4.33;;;;;23.79;44.08;100174.72;5028260;28;45547;-78
2022/08/14 03:25:59;;;;;;;;;4.33;4.33;;;;;23.71;44.32;100169.84;5036506;28;45866;-79
2022/08/14 03:28:27;;;;;;;;;5.00;5.00;;;;;23.70;44.38;100165.41;5032326;28;47365;-79
2022/08/14 03:30:52;;;;;;;;;5.00;5.00;;;;;23.70;44.39;100171.00;5021591;28;47156;-79
2022/08/14 03:33:18;;;;;;;;;5.00;5.00;;;;;23.68;44.62;100170.47;5021326;28;45659;-80
2022/08/14 03:35:44;;;;;;;;;4.00;4.00;;;;;23.30;44.62;100111.91;5034059;28;45816;-78
2022/08/14 03:38:11;;;;;;;;;3.67;3.67;;;;;23.53;44.88;100153.97;5034417;28;45640;-78
2022/08/14 03:40:40;;;;;;;;;5.00;5.00;;;;;23.44;45.14;100135.13;5050366;28;47476;-79
2022/08/14 03:43:07;;;;;;;;;4.00;4.00;;;;;23.44;45.15;100146.31;5033502;28;45746;-82
2022/08/14 03:45:37;;;;;;;;;4.33;4.33;;;;;23.55;45.32;100160.13;5037522;28;45446;-81
2022/08/14 03:48:18;;;;;;;;;6.00;6.00;;;;;23.35;45.66;100134.16;5035901;28;45786;-83
2022/08/14 03:50:47;;;;;;;;;6.00;5.00;;;;;23.41;45.80;100151.69;5037654;28;46256;-83
2022/08/14 03:53:14;;;;;;;;;7.00;6.00;;;;;23.50;45.99;100160.19;5037270;28;45849;-81
2022/08/14 03:55:42;;;;;;;;;6.00;5.00;;;;;23.38;46.01;100167.16;5024448;28;45504;-79
2022/08/14 03:58:09;;;;;;;;;4.00;4.00;;;;;23.42;46.48;100172.94;5028058;28;45937;-80
2022/08/14 04:00:37;;;;;;;;;5.00;4.00;;;;;23.43;46.56;100180.22;5011858;28;46701;-81
2022/08/14 04:03:05;;;;;;;;;3.33;3.33;;;;;23.44;46.50;100179.91;5012001;28;45729;-80
2022/08/14 04:05:32;;;;;;;;;7.00;4.00;;;;;23.33;46.60;100161.63;5013737;28;45780;-81
2022/08/14 04:07:59;;;;;;;;;6.00;6.00;;;;;23.44;46.66;100191.09;5018148;28;45511;-82
2022/08/14 04:10:28;;;;;;;;;3.33;3.33;;;;;23.25;46.93;100168.78;5018036;28;45697;-83
2022/08/14 04:12:58;;;;;;;;;5.67;5.00;;;;;23.42;47.05;100193.34;5018335;28;45857;-84
2022/08/14 04:15:25;;;;;;;;;4.67;4.33;;;;;23.41;46.84;100190.88;5017222;28;45499;-82
2022/08/14 04:17:52;;;;;;;;;6.67;5.33;;;;;23.37;47.09;100193.47;5022817;28;45577;-83
2022/08/14 04:20:18;;;;;;;;;1.33;1.33;;;;;23.15;47.44;100154.16;5021890;28;46353;-81
2022/08/14 04:22:44;;;;;;;;;5.67;5.33;;;;;23.35;47.59;100187.34;5027816;28;45409;-82
2022/08/14 04:25:10;;;;;;;;;5.00;5.00;;;;;23.36;47.73;100183.41;5030247;28;45396;-82
2022/08/14 04:27:36;;;;;;;;;5.00;5.00;;;;;23.36;47.76;100177.00;5037709;28;45549;-82
2022/08/14 04:30:04;;;;;;;;;7.00;7.00;;;;;23.25;47.95;100166.00;5022526;28;46950;-82
2022/08/14 04:32:32;;;;;;;;;6.00;6.00;;;;;23.29;47.88;100179.34;5037526;28;45571;-82
2022/08/14 04:35:02;;;;;;;;;6.00;6.00;;;;;23.28;48.28;100184.13;5023806;28;45319;-81
2022/08/14 04:45:42;;;;;;;;;7.00;6.00;;;;;23.23;48.27;100153.44;5015098;28;45471;-79
2022/08/14 04:48:12;;;;;;;;;6.33;5.67;;;;;23.38;48.19;100181.16;5015940;28;45382;-80
2022/08/14 04:50:47;;;;;;;;;7.00;6.33;;;;;23.37;48.20;100156.25;5015733;28;45682;-80
2022/08/14 04:53:15;;;;;;;;;6.67;5.00;;;;;23.33;48.20;100135.63;5016396;28;45752;-79
2022/08/14 04:55:47;;;;;;;;;6.33;6.33;;;;;23.31;48.29;100132.31;5015053;28;45380;-79
2022/08/14 04:58:13;;;;;;;;;6.00;6.00;;;;;23.29;48.43;100138.22;5032771;28;45465;-78
2022/08/14 05:00:39;;;;;;;;;7.00;5.00;;;;;23.30;48.74;100134.28;5021393;28;47328;-79
2022/08/14 05:03:06;;;;;;;;;6.00;6.00;;;;;23.37;48.84;100134.72;5027727;28;45824;-78
2022/08/14 05:05:32;;;;;;;;;5.33;5.33;;;;;23.43;49.32;100133.47;5025192;28;45506;-78
2022/08/14 05:08:08;;;;;;;;;5.00;4.00;;;;;23.60;48.83;100143.19;5013182;28;45698;-79
2022/08/14 05:10:38;;;;;;;;;6.00;6.00;;;;;23.47;48.83;100113.25;5025522;28;45494;-79
2022/08/14 05:13:04;;;;;;;;;6.00;6.00;;;;;23.47;48.67;100096.44;5012692;28;45558;-80
2022/08/14 05:15:35;;;;;;;;;5.67;4.00;;;;;23.61;48.78;100120.50;5036640;28;45667;-79
2022/08/14 05:18:08;;;;;;;;;5.67;5.67;;;;;23.59;49.07;100107.94;5024851;28;45789;-78
2022/08/14 05:20:34;;;;;;;;;5.00;5.00;;;;;23.65;49.51;100126.28;5037125;28;45422;-80
2022/08/14 05:23:00;;;;;;;;;6.00;6.00;;;;;23.45;49.52;100105.97;5036330;28;45687;-79
2022/08/14 05:25:26;;;;;;;;;8.33;6.00;;;;;23.56;49.19;100130.97;5037063;28;45781;-78
2022/08/14 05:27:52;;;;;;;;;4.67;4.67;;;;;23.60;49.34;100151.59;5038149;28;45514;-78
2022/08/14 05:30:18;;;;;;;;;5.33;5.00;;;;;23.55;49.36;100129.31;5034724;28;46880;-78
2022/08/14 05:32:47;;;;;;;;;5.33;5.33;;;;;23.61;49.35;100153.28;5027686;28;45418;-77
2022/08/14 05:35:13;;;;;;;;;5.33;5.33;;;;;23.61;49.64;100144.88;5024090;28;45454;-78
2022/08/14 05:37:39;;;;;;;;;6.33;6.33;;;;;23.79;49.09;100145.91;5038009;28;45499;-80
2022/08/14 05:40:06;;;;;;;;;7.00;5.33;;;;;23.91;48.78;100139.78;5037741;28;46493;-80
2022/08/14 05:42:32;;;;;;;;;5.33;5.33;;;;;23.91;48.48;100142.59;5029353;28;45795;-78
2022/08/14 05:44:58;;;;;;;;;6.67;5.33;;;;;24.09;48.16;100150.03;5032770;28;45868;-78
2022/08/14 05:47:23;;;;;;;;;6.00;5.00;;;;;24.25;47.73;100139.31;5035557;28;45574;-78
2022/08/14 05:49:49;;;;;;;;;6.33;6.00;;;;;24.38;47.10;100101.16;5033231;28;46465;-81
2022/08/14 05:52:14;;;;;;;;;4.00;4.00;;;;;25.40;45.33;100105.25;5025173;28;45856;-78
2022/08/14 05:54:41;;;;;;;;;5.00;5.00;;;;;26.38;42.88;100099.50;5035028;28;45825;-79
2022/08/14 05:57:06;;;;;;;;;5.00;4.00;;;;;27.23;41.42;100106.44;5026164;28;45595;-79
2022/08/14 05:59:31;;;;;;;;;7.00;6.00;;;;;28.09;39.25;100109.16;5022952;28;45431;-83
2022/08/14 06:01:57;;;;;;;;;5.00;4.00;;;;;28.88;38.07;100115.75;5028023;28;45587;-83
2022/08/14 06:04:22;;;;;;;;;8.33;4.00;;;;;29.61;36.79;100118.22;5018165;28;45693;-82
2022/08/14 06:06:48;;;;;;;;;7.00;5.00;;;;;29.99;35.52;100095.25;5017457;28;46188;-81
2022/08/14 06:09:13;;;;;;;;;5.00;5.00;;;;;30.71;34.90;100085.22;5017099;28;45670;-80
2022/08/14 06:11:39;;;;;;;;;6.67;5.00;;;;;31.28;33.25;100091.63;5018087;28;45581;-79
2022/08/14 06:14:05;;;;;;;;;4.00;4.00;;;;;31.90;32.57;100110.94;5030865;28;45444;-82
2022/08/14 06:16:31;;;;;;;;;6.33;4.33;;;;;32.59;31.19;100116.09;5019221;28;45740;-81
2022/08/14 06:18:56;;;;;;;;;5.00;5.00;;;;;32.79;30.83;100108.44;5015573;28;46989;-83
2022/08/14 06:21:22;;;;;;;;;6.33;4.00;;;;;32.77;30.14;100080.41;5033053;28;45483;-82
2022/08/14 06:23:47;;;;;;;;;5.00;5.00;;;;;32.64;30.29;100093.09;5028720;28;45435;-81
2022/08/14 06:26:13;;;;;;;;;5.33;5.33;;;;;32.16;30.65;100110.34;5016668;28;45639;-82
2022/08/14 06:28:38;;;;;;;;;5.33;5.33;;;;;31.80;31.40;100113.16;5028031;28;46533;-82
2022/08/14 06:31:05;;;;;;;;;5.67;5.67;;;;;31.78;31.47;100092.03;5015042;28;45357;-81
2022/08/14 06:33:30;;;;;;;;;4.00;4.00;;;;;31.77;31.13;100096.88;5016255;28;45507;-82
2022/08/14 06:35:56;;;;;;;;;5.67;5.67;;;;;31.95;31.00;100105.81;5031426;28;45671;-80
2022/08/14 06:38:22;;;;;;;;;5.33;5.33;;;;;31.88;31.02;100093.47;5032012;28;46421;-78
2022/08/14 06:40:49;;;;;;;;;6.33;5.67;;;;;32.01;30.92;100101.47;5027896;28;45363;-80
2022/08/14 06:43:16;;;;;;;;;5.00;5.00;;;;;31.93;31.34;100101.69;5029474;28;45490;-83
2022/08/14 06:45:43;;;;;;;;;6.00;6.00;;;;;31.67;31.36;100097.44;5015448;28;46056;-78
2022/08/14 06:48:23;;;;;;;;;4.67;4.67;;;;;31.39;32.32;100104.03;5017986;28;46336;-79
2022/08/14 06:50:50;;;;;;;;;4.00;4.00;;;;;31.08;32.68;100111.34;5017462;28;45401;-79
2022/08/14 06:53:16;;;;;;;;;5.00;5.00;;;;;30.77;33.02;100117.75;5017030;28;45425;-80
2022/08/14 06:55:43;;;;;;;;;7.00;5.00;;;;;30.48;33.90;100124.59;5017264;28;45892;-78
2022/08/14 06:58:17;;;;;;;;;6.00;6.00;;;;;30.18;33.80;100113.56;5015984;28;47165;-79
2022/08/14 07:05:44;;;;;;;;;6.33;5.33;;;;;30.01;33.95;100107.00;5016439;28;45363;-82
2022/08/14 07:06:14;;;;;;;;;7.67;5.67;;;;;29.74;34.42;100117.84;5033454;28;45328;-80
2022/08/14 07:08:42;;;;;;;;;6.00;6.00;;;;;29.51;34.87;100113.88;5025844;28;45886;-79
2022/08/14 07:11:08;;;;;;;;;10.67;5.00;;;;;29.33;35.31;100107.63;5015744;28;45414;-80
2022/08/14 07:13:33;;;;;;;;;6.00;6.00;;;;;29.12;35.70;100107.69;5016109;28;45736;-76
2022/08/14 07:15:59;;;;;;;;;7.00;6.00;;;;;29.09;35.92;100106.41;5015493;28;45327;-77
2022/08/14 07:18:27;;;;;;;;;4.67;4.67;;;;;29.09;36.54;100116.84;5015462;28;45376;-79
2022/08/14 07:20:54;;;;;;;;;9.67;9.00;;;;;29.03;37.13;100134.03;5014606;28;45564;-78
2022/08/14 07:23:22;;;;;;;;;6.00;6.00;;;;;28.97;37.70;100124.13;5018058;28;45546;-78
2022/08/14 07:25:49;;;;;;;;;9.00;7.67;;;;;28.90;37.66;100108.94;5016778;28;45580;-79
2022/08/14 07:28:24;;;;;;;;;9.00;6.00;;;;;28.98;37.52;100131.44;5018073;28;45418;-78
2022/08/14 07:30:54;;;;;;;;;7.00;7.00;;;;;29.18;37.26;100137.38;5017734;28;45582;-77
2022/08/14 07:33:20;;;;;;;;;7.00;6.00;;;;;29.55;36.24;100126.94;5017968;28;45384;-78
2022/08/14 07:35:46;;;;;;;;;6.33;6.33;;;;;30.08;34.03;100127.03;5016804;28;45410;-77
2022/08/14 07:38:17;;;;;;;;;6.00;5.00;;;;;30.80;33.21;100103.69;5017508;28;45330;-78
2022/08/14 07:40:42;;;;;;;;;7.00;5.67;;;;;31.75;32.25;100118.28;5017002;28;45855;-79
2022/08/14 07:43:08;;;;;;;;;4.67;4.67;;;;;32.71;30.85;100127.31;5016818;28;45857;-78
2022/08/14 07:45:34;;;;;;;;;4.00;4.00;;;;;33.85;29.16;100127.75;5016122;28;45487;-78
2022/08/14 07:47:59;;;;;;;;;5.67;5.67;;;;;35.10;28.27;100126.91;5014874;28;46104;-77
2022/08/14 07:50:25;;;;;;;;;6.00;5.00;;;;;36.23;26.85;100130.28;5015824;28;45525;-79
2022/08/14 07:52:50;;;;;;;;;4.00;4.00;;;;;37.01;25.46;100126.13;5014629;28;45463;-79
2022/08/14 07:55:17;;;;;;;;;4.00;4.00;;;;;36.93;25.30;100127.31;5016436;28;45464;-80
2022/08/14 07:57:44;;;;;;;;;4.00;3.00;;;;;37.06;24.69;100125.69;5028983;28;45877;-79
2022/08/14 08:00:18;;;;;;;;;7.00;5.00;;;;;37.83;23.58;100115.94;5035559;28;45682;-80
2022/08/14 08:02:46;;;;;;;;;8.33;6.00;;;;;38.55;23.34;100072.78;5034276;28;45501;-78
2022/08/14 08:05:13;;;;;;;;;5.00;5.00;;;;;39.53;21.66;100096.66;5029692;28;45703;-78
2022/08/14 08:07:41;;;;;;;;;4.00;4.00;;;;;39.92;21.24;100060.19;5033833;28;45760;-79
2022/08/14 08:12:57;;;;;;;;;4.00;4.00;;;;;41.69;20.09;100101.59;5034352;28;45625;-78
2022/08/14 08:15:27;;;;;;;;;4.67;4.67;;;;;41.50;20.08;100091.69;5035278;28;45478;-79
2022/08/14 08:17:54;;;;;;;;;4.00;4.00;;;;;41.10;20.45;100108.78;5008955;28;45407;-79
2022/08/14 08:20:24;;;;;;;;;6.33;5.00;;;;;40.28;20.81;100070.47;5032333;28;45459;-78
2022/08/14 08:22:52;;;;;;;;;5.67;5.33;;;;;39.75;20.98;100096.50;5050154;28;45735;-83
2022/08/14 08:25:18;;;;;;;;;5.67;4.67;;;;;39.11;22.13;100104.38;5035962;28;46473;-79
2022/08/14 08:27:54;;;;;;;;;4.67;4.67;;;;;38.56;22.50;100119.41;5045722;28;46336;-78
2022/08/14 08:30:20;;;;;;;;;5.00;5.00;;;;;38.04;22.46;100131.44;5030860;28;44801;-82
2022/08/14 08:32:45;;;;;;;;;5.33;4.33;;;;;37.32;22.86;100080.81;5023465;28;45399;-80
2022/08/14 08:35:20;;;;;;;;;3.00;3.00;;;;;37.63;22.99;100130.66;5034923;28;45844;-83
2022/08/14 08:37:51;;;;;;;;;4.00;4.00;;;;;38.75;22.14;100123.88;5034723;28;47167;-83
2022/08/14 08:40:30;;;;;;;;;6.00;6.00;;;;;39.64;21.49;100118.72;5032338;28;45746;-82
2022/08/14 08:42:56;;;;;;;;;4.33;4.33;;;;;40.02;20.90;100107.31;5027860;28;45852;-83
2022/08/14 08:45:22;;;;;;;;;5.00;5.00;;;;;40.91;20.38;100121.81;5028316;28;45638;-83
2022/08/14 08:47:49;;;;;;;;;6.00;4.67;;;;;42.13;19.56;100137.00;5015485;28;47221;-84
2022/08/14 08:50:22;;;;;;;;;4.00;4.00;;;;;43.21;18.85;100122.38;5036489;28;45375;-82
2022/08/14 08:52:52;;;;;;;;;6.00;6.00;;;;;44.50;17.60;100131.72;5020982;28;45799;-83
2022/08/14 08:55:46;;;;;;;;;4.33;4.33;;;;;45.45;16.59;100134.97;5015685;28;45739;-83
2022/08/14 08:58:16;;;;;;;;;6.67;6.00;;;;;46.39;16.46;100131.63;5013654;28;45493;-80
2022/08/14 09:00:47;;;;;;;;;4.67;4.67;;;;;46.55;15.36;100133.50;5027803;28;45841;-82
2022/08/14 09:03:16;;;;;;;;;3.00;3.00;;;;;46.43;15.48;100120.69;5013924;28;45417;-82
2022/08/14 09:05:56;;;;;;;;;3.00;3.00;;;;;45.79;16.36;100089.06;5027658;28;46747;-80
2022/08/14 09:08:28;;;;;;;;;5.00;5.00;;;;;45.18;16.54;100109.34;5014104;28;46311;-82
2022/08/14 09:11:08;;;;;;;;;3.33;3.33;;;;;44.25;17.07;100095.69;5020624;28;45700;-81
2022/08/14 09:13:34;;;;;;;;;4.00;4.00;;;;;43.19;18.04;100087.34;5027083;28;45428;-78
2022/08/14 09:16:00;;;;;;;;;5.67;4.33;;;;;42.33;18.46;100078.59;5030568;28;46202;-79
2022/08/14 09:18:26;;;;;;;;;5.33;5.33;;;;;41.84;19.21;100101.38;5025419;28;47344;-78
2022/08/14 09:20:57;;;;;;;;;4.67;4.00;;;;;41.20;20.01;100101.22;5034160;28;45484;-79
2022/08/14 09:23:23;;;;;;;;;5.00;5.00;;;;;40.58;20.75;100096.34;5029888;28;45800;-78
2022/08/14 09:25:50;;;;;;;;;6.00;6.00;;;;;40.02;20.80;100087.22;5018680;28;46482;-78
2022/08/14 09:28:18;;;;;;;;;6.67;6.67;;;;;39.51;21.90;100081.94;5032702;28;47181;-78
2022/08/14 09:30:55;;;;;;;;;7.00;6.00;;;;;38.85;22.32;100068.50;5034717;28;45688;-79
2022/08/14 09:33:30;;;;;;;;;5.00;5.00;;;;;38.78;23.06;100094.38;5036369;28;45848;-80
2022/08/14 09:36:02;;;;;;;;;7.67;7.00;;;;;38.48;23.47;100072.81;5034047;28;45443;-79
2022/08/14 09:38:46;;;;;;;;;5.33;5.33;;;;;38.40;24.16;100079.78;5030673;28;47645;-79
2022/08/14 09:41:50;;;;;;;;;5.00;5.00;;;;;38.44;23.82;100075.66;5034412;28;45447;-83
2022/08/14 09:44:28;;;;;;;;;4.67;4.67;;;;;38.67;23.47;100088.66;5029029;28;45432;-82
2022/08/14 09:46:55;;;;;;;;;5.00;5.00;;;;;38.58;23.52;100083.38;5030189;28;45753;-79
2022/08/14 09:49:37;;;;;;;;;4.33;4.33;;;;;38.49;23.73;100083.84;5030116;28;47272;-82
2022/08/14 09:52:12;;;;;;;;;5.67;5.67;;;;;38.23;23.98;100093.78;5009233;28;45432;-80
2022/08/14 09:54:43;;;;;;;;;4.33;4.33;;;;;38.09;24.77;100099.53;5016754;28;45550;-80
2022/08/14 09:57:12;;;;;;;;;4.33;4.33;;;;;38.03;25.06;100104.88;5013401;28;45571;-81
2022/08/14 09:59:41;;;;;;;;;5.67;5.00;;;;;38.30;24.38;100110.13;5015031;28;45812;-80
2022/08/14 10:02:30;;;;;;;;;5.00;5.00;;;;;38.56;24.82;100099.34;5017410;28;45419;-80
2022/08/14 10:05:05;;;;;;;;;4.33;4.33;;;;;39.08;24.45;100096.59;5017083;28;45383;-79
2022/08/14 10:07:49;;;;;;;;;7.33;5.33;;;;;39.98;22.91;100097.88;5036088;28;45475;-81
2022/08/14 10:10:34;;;;;;;;;5.00;5.00;;;;;40.80;22.76;100086.59;5037481;28;46521;-84
2022/08/14 10:13:06;;;;;;;;;3.33;3.33;;;;;41.47;22.37;100093.38;5053028;28;45957;-81
2022/08/14 10:15:37;;;;;;;;;5.00;5.00;;;;;41.92;21.77;100086.41;5055207;28;45676;-83
2022/08/14 10:18:08;;;;;;;;;3.33;3.33;;;;;42.44;22.23;100087.00;5037950;28;45546;-80
2022/08/14 10:20:50;;;;;;;;;4.67;4.00;;;;;42.75;20.87;100087.56;5035643;28;45970;-80
2022/08/14 10:23:21;;;;;;;;;5.33;4.33;;;;;42.60;21.33;100075.53;5027089;28;45746;-82
2022/08/14 10:26:03;;;;;;;;;4.00;4.00;;;;;42.89;21.54;100063.31;5032261;28;45551;-80
2022/08/14 10:28:38;;;;;;;;;4.67;4.67;;;;;43.34;20.69;100082.84;5052836;28;46295;-83
2022/08/14 10:31:28;;;;;;;;;4.00;4.00;;;;;43.06;21.04;100041.09;5014870;28;47247;-78
2022/08/14 10:34:08;;;;;;;;;5.67;5.67;;;;;43.03;20.88;100068.78;5034353;28;45446;-78
2022/08/14 10:36:40;;;;;;;;;5.00;4.67;;;;;42.31;21.22;100073.28;5035080;28;45298;-81
2022/08/14 10:39:24;;;;;;;;;4.67;4.67;;;;;41.79;21.08;100080.47;5027490;28;45787;-81
2022/08/14 10:42:05;;;;;;;;;5.00;5.00;;;;;41.07;21.64;100057.88;5020081;28;45803;-82
2022/08/14 10:44:37;;;;;;;;;6.00;3.67;;;;;40.75;23.00;100082.97;5034565;28;45614;-83
2022/08/14 10:47:09;;;;;;;;;4.00;4.00;;;;;40.32;23.15;100062.59;5014473;28;45433;-83
2022/08/14 10:49:55;;;;;;;;;5.00;4.00;;;;;39.90;22.88;100077.84;5027960;28;46073;-80
2022/08/14 10:52:31;;;;;;;;;5.00;4.00;;;;;39.76;23.77;100085.81;5015789;28;45801;-76
2022/08/14 10:55:12;;;;;;;;;4.67;4.00;;;;;39.59;23.20;100079.81;5016056;28;45620;-78
2022/08/14 10:57:53;;;;;;;;;5.00;5.00;;;;;39.35;23.23;100058.72;5027601;28;45596;-80
2022/08/14 11:00:25;;;;;;;;;4.33;4.33;;;;;39.34;23.97;100089.44;5051996;28;45736;-79
2022/08/14 11:03:01;;;;;;;;;6.00;4.00;;;;;39.01;24.22;100067.97;5019462;28;45709;-78
2022/08/14 11:05:48;;;;;;;;;4.33;3.33;;;;;38.97;24.33;100090.94;5016326;28;45781;-78
2022/08/14 11:08:18;;;;;;;;;3.33;3.33;;;;;38.72;24.63;100091.13;5017910;28;45557;-83
2022/08/14 11:10:56;;;;;;;;;6.00;4.67;;;;;38.14;25.08;100064.72;5018078;28;45464;-82
2022/08/14 11:13:26;;;;;;;;;3.67;3.67;;;;;37.98;25.86;100100.38;5018131;28;45559;-84
2022/08/14 11:15:54;;;;;;;;;6.00;5.00;;;;;37.73;25.99;100094.72;5017046;28;45806;-82
2022/08/14 11:18:21;;;;;;;;;4.33;4.33;;;;;37.53;26.24;100102.06;5015696;28;45837;-85
2022/08/14 11:20:54;;;;;;;;;5.00;5.00;;;;;37.31;26.35;100102.06;5016149;28;46043;-83
2022/08/14 11:23:27;;;;;;;;;3.67;3.67;;;;;37.02;26.80;100096.28;5018487;28;45843;-82
2022/08/14 11:25:55;;;;;;;;;4.00;4.00;;;;;36.62;27.16;100106.81;5017969;28;45682;-83
2022/08/14 11:28:30;;;;;;;;;4.00;4.00;;;;;36.29;27.42;100083.03;5016766;28;45804;-83
2022/08/14 11:30:57;;;;;;;;;4.67;4.67;;;;;36.03;27.82;100076.31;5005332;28;45304;-84
2022/08/14 11:33:33;;;;;;;;;4.00;4.00;;;;;35.84;28.00;100079.47;5019132;28;47277;-85
2022/08/14 11:36:04;;;;;;;;;5.00;4.67;;;;;35.64;28.28;100067.50;5019925;28;45301;-85
2022/08/14 11:38:40;;;;;;;;;5.67;4.00;;;;;35.66;28.78;100100.16;5018657;28;45490;-84
2022/08/14 11:41:07;;;;;;;;;6.33;6.33;;;;;35.57;29.04;100108.22;5019180;28;45486;-84
2022/08/14 11:43:44;;;;;;;;;3.00;3.00;;;;;35.39;29.06;100101.53;5018006;28;46599;-84
2022/08/14 11:46:12;;;;;;;;;5.00;5.00;;;;;35.08;29.12;100078.06;5017116;28;45384;-81
2022/08/14 11:48:50;;;;;;;;;4.00;4.00;;;;;34.97;30.51;100083.63;5017916;28;45488;-83
2022/08/14 11:51:22;;;;;;;;;5.33;4.00;;;;;34.92;30.52;100104.75;5018938;28;45788;-84
2022/08/14 11:54:07;;;;;;;;;4.00;3.33;;;;;34.67;30.33;100078.81;5025722;28;45784;-82